Overview Statistics Trail Chart Weather Telemetry Raw packets
 

This is the latest recevied weather packets stored in our database for station/object KI5QCM-13. If no packets are shown the sender has not sent any weather packets the latest 10 day(s).

<< 8 9 10 11 12 13 14 >>
Time Temp. Humidity Pressure Rain* Wind** Luminosity Snow
1788294632 37.78° C 37% 1014.2 hPa 0 mm - 248 W/m² -
1788294054 38.89° C 35% 1014.2 hPa 0 mm - 504 W/m² -
1788293478 39.44° C 34% 1014.5 hPa 0 mm - 589 W/m² -
1788292838 38.89° C 34% 1014.7 hPa 0 mm - 638 W/m² -
1788292246 39.44° C 35% 1014.9 hPa 0 mm - 476 W/m² -
1788291671 38.89° C 36% 1014.9 hPa 0 mm - 704 W/m² -
1788291079 37.78° C 37% 1014.9 hPa 0 mm - 611 W/m² -
1788290439 37.22° C 39% 1015.1 hPa 0 mm - 182 W/m² -
1788289863 36.67° C 39% 1015.1 hPa 0 mm - 652 W/m² -
1788289223 38.33° C 37% 1015.3 hPa 0 mm - 695 W/m² -
1788288648 37.22° C 38% 1015.5 hPa 0 mm - 355 W/m² -
1788288071 36.67° C 39% 1015.7 hPa 0 mm - 421 W/m² -
1788287431 36.67° C 39% 1015.7 hPa 0 mm - 365 W/m² -
1788286855 36.67° C 39% 1015.8 hPa 0 mm - 724 W/m² -
1788286279 37.22° C 39% 1016.1 hPa 0 mm - 507 W/m² -
1788285638 37.22° C 40% 1016.1 hPa 0 mm - 748 W/m² -
1788285063 36.11° C 41% 1016.2 hPa 0 mm - 559 W/m² -
1788284423 36.67° C 41% 1016.3 hPa 0 mm - 459 W/m² -
1788283847 36.67° C 41% 1016.4 hPa 0 mm - 528 W/m² -
1788283271 36.67° C 41% 1016.5 hPa 0 mm - 760 W/m² -
1788282631 36.11° C 43% 1016.8 hPa 0 mm - 735 W/m² -
1788282054 36.11° C 43% 1016.8 hPa 0 mm - 757 W/m² -
1788281447 35.56° C 44% 1016.9 hPa 0 mm - 478 W/m² -
1788280871 35° C 48% 1017 hPa 0 mm - 712 W/m² -
1788280231 35° C 50% 1017.3 hPa 0 mm - 537 W/m² -

* Rain latest hour (hover to see other rain measurements)
** Current wind speed in m/s (hover to see current wind gust speed)